createdAt,value
2019-03-23T00:00:39.270Z,11.40
2019-03-23T00:01:39.260Z,14.30
2019-03-23T00:02:39.271Z,12.60
2019-03-23T00:03:39.237Z,14.40
2019-03-23T00:04:39.233Z,14.50
2019-03-23T00:05:39.220Z,13.40
2019-03-23T00:06:39.203Z,12.70
2019-03-23T00:07:39.227Z,14.20
2019-03-23T00:08:39.186Z,13.50
2019-03-23T00:09:39.171Z,14.70
2019-03-23T00:10:39.166Z,15.10
2019-03-23T00:11:39.155Z,13.60
2019-03-23T00:12:39.159Z,15.50
2019-03-23T00:13:39.135Z,16.50
2019-03-23T00:14:39.120Z,12.90
2019-03-23T00:15:39.131Z,13.30
2019-03-23T00:16:39.098Z,14.70
2019-03-23T00:17:39.101Z,14.80
2019-03-23T00:18:39.074Z,13.80
2019-03-23T00:19:39.079Z,15.50
2019-03-23T00:20:39.063Z,13.50
2019-03-23T00:21:39.035Z,13.70
2019-03-23T00:22:39.049Z,14.30
2019-03-23T00:23:39.015Z,12.90
2019-03-23T00:24:39.016Z,15.90
2019-03-23T00:25:39.027Z,13.00
2019-03-23T00:26:38.989Z,15.00
2019-03-23T00:27:39.053Z,15.30
2019-03-23T00:28:38.965Z,13.10
2019-03-23T00:29:38.953Z,13.70
2019-03-23T00:30:38.952Z,13.80
2019-03-23T00:31:38.928Z,14.10
2019-03-23T00:32:38.934Z,14.00
2019-03-23T00:33:38.911Z,14.20
2019-03-23T00:34:38.896Z,16.20
2019-03-23T00:35:38.897Z,14.80
2019-03-23T00:36:41.711Z,14.70
2019-03-23T00:37:38.887Z,15.20
2019-03-23T00:38:38.860Z,13.60
2019-03-23T00:39:38.856Z,14.60
2019-03-23T00:40:38.838Z,15.50
2019-03-23T00:41:38.835Z,16.80
2019-03-23T00:42:38.833Z,16.00
2019-03-23T00:43:38.816Z,13.00
2019-03-23T00:44:38.788Z,13.30
2019-03-23T00:45:38.785Z,14.00
2019-03-23T00:46:38.778Z,15.00
2019-03-23T00:47:38.806Z,12.70
2019-03-23T00:48:38.751Z,14.20
2019-03-23T00:49:38.738Z,15.20
2019-03-23T00:50:38.727Z,15.20
2019-03-23T00:51:38.725Z,15.10
2019-03-23T00:52:38.713Z,16.60
2019-03-23T00:53:38.689Z,13.80
2019-03-23T00:54:38.697Z,14.80
2019-03-23T00:55:38.683Z,15.80
2019-03-23T00:56:38.995Z,14.00
2019-03-23T00:57:38.669Z,14.70
2019-03-23T00:58:38.636Z,14.70
2019-03-23T00:59:38.629Z,12.40
2019-03-23T01:00:38.610Z,14.50
2019-03-23T01:01:38.600Z,13.60
2019-03-23T01:02:38.618Z,14.10
2019-03-23T01:04:48.104Z,10.70
2019-03-23T01:05:49.123Z,11.60
2019-03-23T01:06:52.309Z,14.00
2019-03-23T01:07:49.076Z,12.90
2019-03-23T01:08:49.055Z,13.70
2019-03-23T01:09:49.038Z,13.90
2019-03-23T01:10:49.037Z,12.90
2019-03-23T01:11:49.021Z,14.20
2019-03-23T01:12:49.029Z,14.60
2019-03-23T01:13:49.011Z,13.10
2019-03-23T01:14:48.999Z,12.80
2019-03-23T01:15:48.974Z,13.10
2019-03-23T01:16:48.973Z,13.20
2019-03-23T01:17:48.981Z,13.20
2019-03-23T01:18:48.943Z,12.30
2019-03-23T01:19:48.940Z,13.70
2019-03-23T01:20:49.840Z,12.20
2019-03-23T01:21:48.918Z,12.90
2019-03-23T01:22:48.925Z,14.40
2019-03-23T01:23:48.896Z,12.40
2019-03-23T01:24:48.880Z,13.40
2019-03-23T01:25:48.863Z,12.50
2019-03-23T01:26:48.865Z,12.40
2019-03-23T01:27:48.856Z,12.60
2019-03-23T01:28:48.844Z,13.50
2019-03-23T01:29:48.820Z,13.60
2019-03-23T01:30:48.815Z,14.30
2019-03-23T01:31:48.802Z,13.10
2019-03-23T01:32:48.813Z,13.10
2019-03-23T01:33:48.788Z,13.10
2019-03-23T01:34:48.768Z,14.40
2019-03-23T01:35:48.754Z,14.70
2019-03-23T01:36:48.762Z,14.00
2019-03-23T01:37:48.759Z,13.50
2019-03-23T01:38:48.732Z,13.80
2019-03-23T01:39:48.720Z,16.20
2019-03-23T01:40:48.712Z,13.70
2019-03-23T01:41:48.693Z,13.90
2019-03-23T01:42:48.707Z,14.10
2019-03-23T01:43:48.674Z,13.20
2019-03-23T01:44:48.676Z,14.00
2019-03-23T01:45:48.664Z,15.40
2019-03-23T01:46:48.648Z,21.40
2019-03-23T01:47:48.659Z,22.30
2019-03-23T01:48:48.625Z,20.10
2019-03-23T01:49:48.610Z,17.90
2019-03-23T01:50:48.609Z,18.60
2019-03-23T01:51:48.620Z,17.70
2019-03-23T01:52:48.615Z,15.70
2019-03-23T01:53:48.574Z,15.70
2019-03-23T01:54:48.573Z,16.90
2019-03-23T01:55:48.540Z,16.00
2019-03-23T01:56:48.569Z,15.30
2019-03-23T01:57:49.064Z,15.20
2019-03-23T01:58:48.515Z,16.40
2019-03-23T01:59:48.505Z,15.40
2019-03-23T02:00:48.485Z,15.00
2019-03-23T02:01:48.480Z,14.00
2019-03-23T02:02:48.482Z,16.10
2019-03-23T02:03:48.463Z,14.40
2019-03-23T02:04:48.447Z,14.10
2019-03-23T02:05:48.440Z,14.40
2019-03-23T02:06:48.417Z,15.10
2019-03-23T02:07:48.437Z,17.20
2019-03-23T02:08:48.407Z,15.50
2019-03-23T02:09:48.387Z,18.20
2019-03-23T02:10:48.383Z,15.10
2019-03-23T02:11:48.363Z,14.90
2019-03-23T02:12:48.381Z,16.00
2019-03-23T02:13:48.350Z,16.30
2019-03-23T02:14:48.343Z,14.80
2019-03-23T02:15:48.341Z,17.90
2019-03-23T02:16:48.311Z,15.30
2019-03-23T02:17:48.318Z,18.40
2019-03-23T02:18:48.304Z,16.10
2019-03-23T02:19:48.277Z,17.50
2019-03-23T02:20:48.275Z,17.60
2019-03-23T02:21:48.283Z,17.10
2019-03-23T02:22:48.274Z,19.10
2019-03-23T02:23:48.242Z,16.00
2019-03-23T02:24:48.232Z,17.40
2019-03-23T02:25:48.221Z,20.00
2019-03-23T02:26:48.224Z,17.10
2019-03-23T02:27:48.206Z,19.80
2019-03-23T02:28:48.178Z,17.90
2019-03-23T02:29:48.182Z,16.90
2019-03-23T02:30:48.175Z,17.60
2019-03-23T02:31:48.146Z,17.70
2019-03-23T02:32:48.169Z,18.20
2019-03-23T02:33:48.145Z,17.10
2019-03-23T02:34:48.129Z,16.30
2019-03-23T02:35:48.114Z,16.40
2019-03-23T02:36:48.105Z,17.20
2019-03-23T02:37:48.104Z,16.80
2019-03-23T02:38:48.076Z,16.50
2019-03-23T02:39:48.066Z,16.60
2019-03-23T02:40:48.051Z,19.00
2019-03-23T02:41:48.044Z,16.20
2019-03-23T02:42:48.055Z,18.00
2019-03-23T02:43:48.025Z,16.20
2019-03-23T02:44:48.018Z,18.00
2019-03-23T02:45:48.007Z,15.70
2019-03-23T02:46:47.994Z,16.20
2019-03-23T02:47:48.001Z,16.00
2019-03-23T02:48:47.989Z,15.70
2019-03-23T02:49:47.996Z,15.90
2019-03-23T02:50:47.959Z,17.50
2019-03-23T02:51:47.939Z,16.30
2019-03-23T02:52:47.925Z,18.10
2019-03-23T02:53:47.947Z,17.50
2019-03-23T02:54:47.902Z,17.80
2019-03-23T02:55:47.893Z,17.50
2019-03-23T02:56:47.883Z,18.10
2019-03-23T02:57:47.869Z,18.70
2019-03-23T02:58:47.896Z,20.40
2019-03-23T02:59:47.860Z,18.80
2019-03-23T03:00:47.834Z,18.70
2019-03-23T03:01:47.840Z,19.20
2019-03-23T03:02:47.823Z,17.90
2019-03-23T03:03:47.843Z,18.50
2019-03-23T03:05:56.989Z,17.10
2019-03-23T03:06:57.988Z,18.50
2019-03-23T03:07:57.986Z,18.50
2019-03-23T03:08:57.958Z,19.00
2019-03-23T03:09:57.956Z,18.60
2019-03-23T03:10:57.946Z,18.40
2019-03-23T03:11:57.930Z,18.70
2019-03-23T03:12:57.942Z,18.70
2019-03-23T03:13:57.930Z,19.30
2019-03-23T03:14:57.909Z,18.50
2019-03-23T03:15:57.919Z,19.60
2019-03-23T03:16:57.875Z,19.10
2019-03-23T03:17:57.870Z,21.30
2019-03-23T03:18:57.861Z,22.00
2019-03-23T03:19:57.855Z,23.60
2019-03-23T03:20:57.833Z,22.80
2019-03-23T03:21:58.728Z,27.10
2019-03-23T03:22:57.799Z,27.50
2019-03-23T03:23:57.836Z,30.50
2019-03-23T03:24:57.797Z,31.80
2019-03-23T03:25:57.789Z,28.60
2019-03-23T03:26:57.769Z,30.80
2019-03-23T03:27:57.762Z,29.10
2019-03-23T03:28:57.769Z,33.60
2019-03-23T03:29:57.743Z,30.60
2019-03-23T03:30:57.725Z,31.20
2019-03-23T03:31:57.716Z,32.30
2019-03-23T03:32:57.703Z,33.50
2019-03-23T03:33:57.701Z,34.20
2019-03-23T03:34:57.757Z,33.60
2019-03-23T03:35:57.657Z,34.50
2019-03-23T03:36:57.660Z,37.90
2019-03-23T03:37:57.662Z,36.00
2019-03-23T03:38:57.654Z,35.20
2019-03-23T03:39:57.627Z,41.10
2019-03-23T03:40:57.610Z,40.00
2019-03-23T03:41:57.598Z,42.90
2019-03-23T03:42:57.593Z,40.50
2019-03-23T03:43:57.598Z,42.90
2019-03-23T03:44:57.574Z,47.50
2019-03-23T03:45:57.556Z,48.50
2019-03-23T03:46:57.543Z,48.30
2019-03-23T03:47:57.559Z,53.50
2019-03-23T03:49:11.487Z,54.60
2019-03-23T03:49:57.511Z,63.50
2019-03-23T03:50:57.506Z,63.50
2019-03-23T03:51:57.502Z,66.10
2019-03-23T03:52:57.472Z,71.70
2019-03-23T03:53:57.495Z,84.90
2019-03-23T03:54:57.457Z,74.40
2019-03-23T03:55:57.479Z,79.30
2019-03-23T03:56:57.447Z,87.00
2019-03-23T03:57:57.419Z,90.50
2019-03-23T03:58:57.427Z,94.40
2019-03-23T03:59:57.397Z,96.20
2019-03-23T04:00:57.396Z,113.00
2019-03-23T04:01:57.380Z,111.60
2019-03-23T04:02:57.358Z,117.80
2019-03-23T04:03:57.389Z,123.30
2019-03-23T04:04:57.361Z,136.40
2019-03-23T04:05:57.339Z,144.40
2019-03-23T04:06:57.331Z,146.30
2019-03-23T04:08:10.442Z,163.40
2019-03-23T04:08:57.326Z,164.30
2019-03-23T04:09:57.294Z,168.20
2019-03-23T04:10:57.289Z,167.20
2019-03-23T04:11:57.276Z,176.90
2019-03-23T04:12:57.265Z,185.50
2019-03-23T04:13:57.282Z,185.20
2019-03-23T04:14:57.245Z,188.70
2019-03-23T04:15:57.246Z,190.90
2019-03-23T04:16:57.285Z,198.10
2019-03-23T04:17:57.218Z,198.90
2019-03-23T04:18:57.222Z,213.60
2019-03-23T04:19:57.179Z,210.00
2019-03-23T04:20:57.179Z,214.40
2019-03-23T04:21:57.162Z,227.10
2019-03-23T04:22:57.159Z,209.50
2019-03-23T04:23:57.167Z,210.60
2019-03-23T04:24:57.128Z,218.60
2019-03-23T04:25:57.166Z,214.70
2019-03-23T04:26:57.111Z,210.30
2019-03-23T04:27:57.098Z,221.30
2019-03-23T04:28:57.106Z,216.80
2019-03-23T04:29:57.081Z,211.20
2019-03-23T04:30:57.081Z,218.30
2019-03-23T04:31:57.131Z,209.80
2019-03-23T04:32:57.047Z,213.40
2019-03-23T04:33:57.048Z,222.90
2019-03-23T04:34:57.029Z,223.50
2019-03-23T04:35:57.008Z,215.10
2019-03-23T04:36:57.011Z,221.80
2019-03-23T04:37:56.986Z,215.30
2019-03-23T04:38:57.008Z,216.50
2019-03-23T04:39:56.973Z,219.90
2019-03-23T04:40:56.964Z,220.50
2019-03-23T04:41:56.941Z,213.70
2019-03-23T04:42:56.950Z,216.30
2019-03-23T04:43:56.945Z,205.60
2019-03-23T04:44:56.912Z,214.80
2019-03-23T04:45:56.946Z,235.40
2019-03-23T04:46:56.893Z,221.40
2019-03-23T04:47:56.886Z,216.40
2019-03-23T04:48:56.890Z,237.20
2019-03-23T04:49:56.854Z,229.50
2019-03-23T04:50:57.755Z,235.50
2019-03-23T04:51:56.841Z,224.70
2019-03-23T04:52:56.832Z,221.60
2019-03-23T04:53:56.836Z,231.80
2019-03-23T04:54:56.816Z,212.00
2019-03-23T04:55:56.802Z,219.60
2019-03-23T04:56:56.808Z,222.90
2019-03-23T04:57:56.777Z,207.40
2019-03-23T04:58:56.780Z,211.30
2019-03-23T04:59:56.743Z,202.50
2019-03-23T05:00:56.752Z,198.90
2019-03-23T05:01:56.722Z,206.60
2019-03-23T05:02:56.716Z,203.40
2019-03-23T05:03:56.724Z,201.80
2019-03-23T05:04:56.725Z,197.30
2019-03-23T05:07:16.880Z,170.40
2019-03-23T05:08:17.822Z,181.20
2019-03-23T05:09:17.829Z,186.30
2019-03-23T05:10:17.798Z,190.90
2019-03-23T05:11:17.790Z,175.80
2019-03-23T05:12:17.769Z,180.00
2019-03-23T05:13:17.761Z,176.90
2019-03-23T05:14:17.773Z,176.10
2019-03-23T05:15:17.735Z,171.90
2019-03-23T05:16:17.727Z,169.70
2019-03-23T05:17:17.723Z,165.40
2019-03-23T05:18:17.720Z,167.40
2019-03-23T05:19:17.715Z,161.80
2019-03-23T05:20:17.695Z,165.10
2019-03-23T05:21:17.677Z,159.80
2019-03-23T05:22:17.661Z,161.70
2019-03-23T05:23:17.668Z,162.80
2019-03-23T05:24:17.650Z,153.20
2019-03-23T05:25:17.629Z,155.60
2019-03-23T05:26:17.625Z,153.10
2019-03-23T05:27:17.616Z,154.40
2019-03-23T05:28:17.594Z,154.80
2019-03-23T05:29:17.608Z,152.70
2019-03-23T05:30:17.573Z,155.70
2019-03-23T05:31:17.576Z,150.30
2019-03-23T05:32:18.161Z,153.20
2019-03-23T05:33:17.549Z,151.70
2019-03-23T05:34:17.541Z,150.90
2019-03-23T05:35:17.530Z,153.00
2019-03-23T05:36:17.502Z,153.70
2019-03-23T05:37:17.497Z,151.10
2019-03-23T05:38:17.481Z,154.00
2019-03-23T05:39:17.494Z,151.40
2019-03-23T05:40:17.470Z,147.10
2019-03-23T05:41:17.507Z,144.70
2019-03-23T05:42:17.441Z,150.30
2019-03-23T05:43:17.440Z,146.70
2019-03-23T05:44:17.434Z,144.10
2019-03-23T05:45:17.415Z,146.90
2019-03-23T05:46:17.412Z,142.60
2019-03-23T05:47:17.401Z,146.30
2019-03-23T05:48:17.385Z,143.80
2019-03-23T05:49:17.475Z,147.50
2019-03-23T05:50:17.357Z,143.40
2019-03-23T05:51:17.351Z,149.30
2019-03-23T05:52:17.336Z,152.80
2019-03-23T05:53:17.330Z,154.10
2019-03-23T05:54:17.335Z,146.10
2019-03-23T05:55:17.298Z,147.50
2019-03-23T05:56:17.301Z,147.90
2019-03-23T05:57:19.749Z,141.20
2019-03-23T05:58:17.271Z,149.80
2019-03-23T05:59:17.286Z,146.10
2019-03-23T06:00:17.258Z,140.00
2019-03-23T06:01:17.243Z,143.60
2019-03-23T06:02:17.219Z,140.70
2019-03-23T06:03:17.220Z,143.60
2019-03-23T06:04:17.223Z,146.70
2019-03-23T06:05:17.198Z,144.60
2019-03-23T06:06:17.189Z,143.80
2019-03-23T06:07:18.158Z,133.50
2019-03-23T06:08:17.165Z,135.10
2019-03-23T06:09:17.170Z,130.00
2019-03-23T06:10:17.135Z,138.00
2019-03-23T06:11:17.140Z,132.10
2019-03-23T06:12:17.758Z,133.00
2019-03-23T06:13:17.103Z,137.70
2019-03-23T06:14:17.117Z,138.80
2019-03-23T06:15:17.093Z,140.00
2019-03-23T06:16:17.990Z,140.80
2019-03-23T06:17:17.084Z,137.30
2019-03-23T06:18:17.044Z,139.40
2019-03-23T06:19:17.068Z,143.80
2019-03-23T06:20:17.043Z,145.00
2019-03-23T06:21:17.026Z,140.60
2019-03-23T06:22:17.007Z,142.40
2019-03-23T06:23:16.994Z,142.60
2019-03-23T06:24:17.010Z,137.40
2019-03-23T06:25:16.978Z,144.50
2019-03-23T06:26:16.967Z,141.70
2019-03-23T06:27:16.957Z,143.00
2019-03-23T06:28:16.951Z,142.20
2019-03-23T06:29:16.950Z,144.60
2019-03-23T06:30:16.923Z,136.20
2019-03-23T06:31:16.918Z,148.20
2019-03-23T06:32:16.908Z,144.90
2019-03-23T06:33:16.897Z,146.30
2019-03-23T06:34:16.899Z,150.10
2019-03-23T06:35:16.865Z,153.50
2019-03-23T06:36:16.867Z,142.70
2019-03-23T06:37:16.853Z,146.20
2019-03-23T06:38:16.838Z,147.10
2019-03-23T06:39:16.841Z,146.30
2019-03-23T06:40:16.806Z,146.90
2019-03-23T06:41:16.799Z,143.50
2019-03-23T06:42:16.794Z,144.70
2019-03-23T06:43:16.785Z,144.60
2019-03-23T06:44:18.388Z,135.10
2019-03-23T06:45:16.753Z,142.60
2019-03-23T06:46:16.746Z,150.20
2019-03-23T06:47:16.734Z,147.30
2019-03-23T06:48:16.726Z,144.40
2019-03-23T06:49:16.748Z,140.70
2019-03-23T06:50:16.701Z,146.90
2019-03-23T06:51:16.684Z,139.10
2019-03-23T06:52:16.690Z,144.10
2019-03-23T06:53:16.672Z,144.10
2019-03-23T06:54:16.677Z,145.20
2019-03-23T06:55:16.653Z,147.20
2019-03-23T06:56:16.626Z,145.90
2019-03-23T06:57:16.627Z,156.90
2019-03-23T06:58:16.611Z,156.50
2019-03-23T06:59:16.623Z,160.40
2019-03-23T07:00:16.620Z,149.80
2019-03-23T07:01:16.594Z,152.30
2019-03-23T07:02:16.571Z,156.40
2019-03-23T07:03:16.556Z,154.30
2019-03-23T07:04:16.550Z,152.90
2019-03-23T07:05:16.552Z,150.10
2019-03-23T07:06:16.531Z,153.00
2019-03-23T07:08:31.880Z,141.40
2019-03-23T07:09:26.714Z,145.30
2019-03-23T07:10:26.678Z,156.00
2019-03-23T07:11:26.667Z,156.50
2019-03-23T07:12:26.665Z,155.80
2019-03-23T07:13:26.662Z,153.70
2019-03-23T07:14:26.659Z,146.70
2019-03-23T07:15:26.627Z,145.10
2019-03-23T07:16:26.616Z,151.60
2019-03-23T07:17:26.606Z,161.50
2019-03-23T07:18:26.603Z,154.70
2019-03-23T07:19:26.608Z,159.60
2019-03-23T07:20:26.581Z,159.50
2019-03-23T07:21:26.573Z,157.50
2019-03-23T07:22:26.557Z,161.70
2019-03-23T07:23:26.550Z,158.30
2019-03-23T07:24:26.558Z,162.30
2019-03-23T07:25:26.519Z,159.70
2019-03-23T07:26:26.522Z,160.80
2019-03-23T07:27:26.495Z,163.90
2019-03-23T07:28:26.489Z,163.60
2019-03-23T07:29:26.492Z,163.70
2019-03-23T07:30:26.471Z,157.10
2019-03-23T07:31:26.477Z,161.30
2019-03-23T07:32:26.462Z,145.90
2019-03-23T07:33:26.449Z,156.40
2019-03-23T07:34:26.447Z,155.40
2019-03-23T07:35:26.441Z,161.80
2019-03-23T07:36:26.416Z,158.50
2019-03-23T07:37:26.387Z,156.70
2019-03-23T07:38:26.386Z,156.60
2019-03-23T07:39:29.113Z,156.40
2019-03-23T07:40:26.367Z,155.60
2019-03-23T07:41:26.349Z,155.50
2019-03-23T07:42:26.329Z,149.50
2019-03-23T07:43:26.336Z,145.00
2019-03-23T07:44:26.318Z,147.30
2019-03-23T07:45:26.313Z,146.00
2019-03-23T07:46:26.289Z,145.90
2019-03-23T07:47:26.281Z,146.30
2019-03-23T07:48:28.458Z,146.50
2019-03-23T07:49:26.256Z,149.80
2019-03-23T07:50:26.266Z,150.70
2019-03-23T07:51:26.240Z,143.70
2019-03-23T07:52:26.221Z,155.70
2019-03-23T07:53:26.237Z,146.70
2019-03-23T07:54:27.004Z,144.30
2019-03-23T07:55:26.221Z,140.30
2019-03-23T07:56:26.189Z,149.10
2019-03-23T07:57:26.175Z,152.60
2019-03-23T07:58:26.168Z,140.70
2019-03-23T07:59:26.155Z,148.00
2019-03-23T08:00:26.155Z,141.00
2019-03-23T08:01:26.121Z,144.50
2019-03-23T08:02:26.123Z,141.60
2019-03-23T08:03:26.109Z,137.40
2019-03-23T08:04:26.117Z,134.60
2019-03-23T08:05:26.094Z,136.90
2019-03-23T08:06:26.068Z,133.40
2019-03-23T08:07:26.066Z,139.90
2019-03-23T08:08:26.060Z,132.60
2019-03-23T08:09:26.042Z,136.60
2019-03-23T08:10:26.040Z,135.60
2019-03-23T08:11:26.051Z,129.10
2019-03-23T08:12:26.961Z,139.70
2019-03-23T08:13:26.040Z,139.60
2019-03-23T08:14:25.991Z,135.70
2019-03-23T08:15:25.995Z,133.70
2019-03-23T08:16:25.972Z,132.00
2019-03-23T08:17:26.009Z,138.30
2019-03-23T08:18:25.943Z,129.20
2019-03-23T08:19:25.932Z,126.70
2019-03-23T08:20:25.936Z,136.20
2019-03-23T08:21:25.925Z,135.90
2019-03-23T08:22:25.899Z,125.50
2019-03-23T08:23:25.891Z,135.20
2019-03-23T08:24:25.868Z,122.60
2019-03-23T08:25:25.895Z,123.80
2019-03-23T08:26:25.853Z,128.50
2019-03-23T08:27:25.852Z,129.00
2019-03-23T08:28:25.847Z,122.10
2019-03-23T08:29:25.816Z,123.80
2019-03-23T08:30:25.831Z,122.70
2019-03-23T08:31:25.812Z,123.00
2019-03-23T08:32:25.784Z,122.10
2019-03-23T08:33:25.777Z,132.20
2019-03-23T08:34:25.757Z,121.90
2019-03-23T08:35:25.793Z,128.90
2019-03-23T08:36:25.738Z,133.00
2019-03-23T08:37:25.740Z,125.40
2019-03-23T08:38:25.736Z,123.80
2019-03-23T08:39:25.722Z,126.80
2019-03-23T08:40:25.712Z,116.20
2019-03-23T08:41:25.685Z,117.70
2019-03-23T08:42:25.680Z,121.30
2019-03-23T08:43:25.669Z,119.20
2019-03-23T08:44:25.656Z,121.80
2019-03-23T08:45:25.658Z,127.40
2019-03-23T08:46:25.641Z,124.30
2019-03-23T08:47:25.623Z,131.40
2019-03-23T08:48:25.608Z,127.40
2019-03-23T08:49:25.602Z,128.90
2019-03-23T08:50:25.618Z,127.40
2019-03-23T08:51:25.572Z,125.90
2019-03-23T08:52:25.563Z,129.80
2019-03-23T08:53:25.562Z,125.90
2019-03-23T08:54:25.577Z,128.00
2019-03-23T08:55:25.573Z,126.40
2019-03-23T08:56:25.534Z,131.00
2019-03-23T08:57:25.519Z,128.60
2019-03-23T08:58:25.509Z,123.20
2019-03-23T08:59:25.488Z,127.00
2019-03-23T09:00:25.498Z,128.00
2019-03-23T09:01:25.471Z,119.60
2019-03-23T09:02:25.464Z,126.60
2019-03-23T09:03:25.458Z,116.40
2019-03-23T09:04:25.470Z,117.60
2019-03-23T09:05:25.458Z,121.10
2019-03-23T09:06:25.423Z,119.90
2019-03-23T09:07:25.400Z,123.70
2019-03-23T09:09:34.677Z,102.10
2019-03-23T09:10:35.600Z,123.70
2019-03-23T09:11:35.572Z,128.50
2019-03-23T09:12:35.549Z,130.80
2019-03-23T09:13:40.605Z,119.10
2019-03-23T09:14:35.525Z,121.70
2019-03-23T09:15:35.535Z,124.40
2019-03-23T09:16:35.509Z,124.80
2019-03-23T09:17:35.500Z,125.60
2019-03-23T09:18:36.337Z,125.80
2019-03-23T09:19:35.471Z,123.80
2019-03-23T09:20:35.477Z,119.30
2019-03-23T09:21:35.455Z,116.20
2019-03-23T09:22:35.445Z,118.80
2019-03-23T09:23:35.433Z,128.20
2019-03-23T09:24:35.418Z,116.50
2019-03-23T09:25:35.429Z,127.40
2019-03-23T09:26:35.398Z,123.60
2019-03-23T09:27:35.407Z,119.40
2019-03-23T09:28:35.378Z,124.00
2019-03-23T09:29:35.378Z,123.50
2019-03-23T09:30:35.373Z,117.10
2019-03-23T09:31:35.336Z,118.50
2019-03-23T09:32:35.322Z,125.60
2019-03-23T09:33:35.317Z,121.90
2019-03-23T09:34:35.318Z,126.30
2019-03-23T09:35:39.301Z,127.50
2019-03-23T09:36:35.281Z,116.20
2019-03-23T09:37:38.125Z,116.40
2019-03-23T09:38:35.261Z,122.10
2019-03-23T09:39:35.270Z,117.10
2019-03-23T09:40:35.273Z,119.60
2019-03-23T09:41:35.227Z,125.30
2019-03-23T09:42:35.217Z,122.10
2019-03-23T09:43:35.216Z,130.50
2019-03-23T09:44:35.196Z,123.20
2019-03-23T09:45:35.340Z,128.50
2019-03-23T09:46:35.175Z,126.30
2019-03-23T09:47:35.175Z,124.30
2019-03-23T09:48:35.151Z,133.00
2019-03-23T09:49:35.149Z,123.60
2019-03-23T09:50:35.158Z,121.50
2019-03-23T09:51:35.119Z,126.40
2019-03-23T09:52:35.104Z,125.20
2019-03-23T09:53:35.106Z,131.70
2019-03-23T09:54:35.087Z,125.60
2019-03-23T09:55:35.098Z,128.50
2019-03-23T09:56:35.068Z,121.90
2019-03-23T09:57:35.060Z,127.90
2019-03-23T09:58:35.042Z,123.40
2019-03-23T09:59:35.033Z,121.80
2019-03-23T10:00:35.045Z,119.20
2019-03-23T10:01:35.027Z,117.80
2019-03-23T10:02:35.001Z,124.20
2019-03-23T10:03:34.997Z,121.90
2019-03-23T10:04:34.975Z,120.10
2019-03-23T10:05:34.984Z,114.40
2019-03-23T10:06:34.980Z,118.20
2019-03-23T10:07:34.952Z,121.30
2019-03-23T10:08:34.936Z,119.60
2019-03-23T10:09:34.932Z,115.50
2019-03-23T10:10:34.934Z,118.60
2019-03-23T10:11:34.905Z,111.40
2019-03-23T10:12:34.885Z,112.50
2019-03-23T10:13:34.873Z,117.40
2019-03-23T10:14:34.863Z,111.00
2019-03-23T10:15:34.870Z,116.00
2019-03-23T10:16:34.842Z,116.90
2019-03-23T10:17:34.830Z,114.20
2019-03-23T10:18:34.815Z,111.90
2019-03-23T10:19:34.831Z,109.90
2019-03-23T10:20:34.819Z,104.70
2019-03-23T10:21:34.799Z,104.70
2019-03-23T10:22:34.790Z,104.90
2019-03-23T10:23:34.784Z,108.30
2019-03-23T10:24:34.761Z,111.50
2019-03-23T10:25:34.757Z,117.60
2019-03-23T10:26:34.737Z,107.30
2019-03-23T10:27:34.728Z,107.70
2019-03-23T10:28:34.719Z,105.50
2019-03-23T10:29:35.343Z,111.90
2019-03-23T10:30:34.853Z,113.30
2019-03-23T10:31:34.687Z,108.90
2019-03-23T10:32:34.685Z,106.10
2019-03-23T10:33:34.677Z,112.10
2019-03-23T10:34:35.345Z,103.90
2019-03-23T10:35:34.870Z,107.90
2019-03-23T10:36:35.338Z,102.90
2019-03-23T10:37:35.335Z,99.80
2019-03-23T10:38:34.754Z,101.10
2019-03-23T10:39:35.342Z,103.30
2019-03-23T10:40:35.333Z,100.00
2019-03-23T10:41:34.708Z,99.50
2019-03-23T10:42:34.628Z,98.30
2019-03-23T10:43:34.540Z,101.20
2019-03-23T10:44:34.541Z,98.90
2019-03-23T10:45:43.824Z,100.00
2019-03-23T10:46:34.523Z,92.50
2019-03-23T10:47:35.422Z,90.70
2019-03-23T10:48:34.497Z,93.20
2019-03-23T10:49:34.480Z,95.00
2019-03-23T10:50:34.476Z,93.40
2019-03-23T10:51:34.466Z,94.30
2019-03-23T10:52:34.488Z,94.80
2019-03-23T10:53:34.438Z,94.20
2019-03-23T10:54:34.423Z,92.70
2019-03-23T10:55:34.413Z,93.00
2019-03-23T10:56:34.427Z,92.40
2019-03-23T10:57:34.382Z,91.80
2019-03-23T10:58:34.393Z,91.70
2019-03-23T10:59:34.388Z,90.80
2019-03-23T11:00:34.354Z,90.10
2019-03-23T11:01:34.371Z,89.80
2019-03-23T11:02:34.325Z,91.10
2019-03-23T11:03:34.313Z,96.70
2019-03-23T11:04:34.317Z,84.50
2019-03-23T11:05:34.307Z,92.20
2019-03-23T11:06:34.306Z,91.10
2019-03-23T11:07:34.280Z,86.90
2019-03-23T11:08:34.282Z,86.60
2019-03-23T11:10:43.487Z,80.10
2019-03-23T11:11:44.470Z,83.30
2019-03-23T11:12:44.461Z,91.10
2019-03-23T11:13:44.438Z,89.70
2019-03-23T11:14:44.450Z,83.50
2019-03-23T11:15:44.441Z,90.10
2019-03-23T11:16:44.417Z,83.50
2019-03-23T11:17:44.415Z,83.50
2019-03-23T11:18:44.386Z,86.70
2019-03-23T11:19:44.390Z,90.00
2019-03-23T11:20:44.387Z,87.20
2019-03-23T11:21:44.369Z,83.00
2019-03-23T11:22:44.337Z,85.60
2019-03-23T11:23:45.555Z,87.60
2019-03-23T11:24:44.311Z,85.80
2019-03-23T11:25:44.308Z,84.60
2019-03-23T11:26:44.345Z,88.70
2019-03-23T11:27:44.282Z,84.00
2019-03-23T11:28:44.279Z,83.40
2019-03-23T11:29:44.278Z,77.20
2019-03-23T11:30:44.252Z,79.30
2019-03-23T11:31:44.260Z,82.40
2019-03-23T11:32:44.236Z,81.90
2019-03-23T11:33:44.228Z,83.10
2019-03-23T11:34:44.200Z,87.00
2019-03-23T11:35:44.196Z,79.10
2019-03-23T11:36:44.209Z,87.10
2019-03-23T11:37:44.403Z,82.60
2019-03-23T11:38:44.167Z,81.60
2019-03-23T11:39:44.150Z,80.70
2019-03-23T11:40:52.205Z,83.60
2019-03-23T11:41:44.155Z,87.20
2019-03-23T11:42:49.818Z,83.10
2019-03-23T11:43:44.114Z,82.60
2019-03-23T11:44:44.138Z,82.50
2019-03-23T11:45:44.090Z,79.60
2019-03-23T11:46:44.085Z,81.30
2019-03-23T11:47:44.053Z,80.40
2019-03-23T11:48:44.063Z,73.80
2019-03-23T11:49:44.051Z,78.30
2019-03-23T11:50:44.038Z,71.30
2019-03-23T11:51:44.033Z,74.40
2019-03-23T11:52:44.011Z,76.10
2019-03-23T11:53:43.997Z,70.40
2019-03-23T11:54:43.982Z,69.70
2019-03-23T11:55:43.971Z,69.50
2019-03-23T11:56:43.986Z,72.50
2019-03-23T11:57:43.953Z,64.30
2019-03-23T11:58:43.932Z,64.10
2019-03-23T11:59:43.933Z,66.70
2019-03-23T12:00:43.927Z,66.30
2019-03-23T12:01:51.494Z,66.00
2019-03-23T12:02:43.899Z,67.50
2019-03-23T12:03:43.890Z,67.50
2019-03-23T12:04:43.873Z,68.00
2019-03-23T12:05:43.860Z,69.40
2019-03-23T12:06:43.875Z,68.20
2019-03-23T12:07:43.838Z,72.90
2019-03-23T12:08:43.832Z,66.50
2019-03-23T12:09:43.832Z,65.50
2019-03-23T12:10:43.815Z,64.20
2019-03-23T12:11:43.814Z,65.70
2019-03-23T12:12:43.787Z,66.40
2019-03-23T12:13:43.770Z,63.60
2019-03-23T12:14:43.763Z,68.70
2019-03-23T12:15:43.744Z,69.00
2019-03-23T12:16:43.765Z,68.80
2019-03-23T12:17:43.724Z,66.00
2019-03-23T12:18:43.730Z,65.00
2019-03-23T12:19:43.715Z,66.20
2019-03-23T12:20:43.704Z,65.70
2019-03-23T12:21:43.704Z,71.50
2019-03-23T12:22:43.677Z,70.30
2019-03-23T12:23:43.661Z,66.90
2019-03-23T12:24:43.653Z,66.00
2019-03-23T12:25:43.645Z,65.90
2019-03-23T12:26:43.661Z,66.50
2019-03-23T12:27:43.632Z,69.50
2019-03-23T12:28:43.616Z,64.90
2019-03-23T12:29:43.593Z,61.80
2019-03-23T12:30:43.606Z,66.50
2019-03-23T12:31:43.614Z,66.60
2019-03-23T12:32:43.573Z,64.70
2019-03-23T12:33:43.562Z,66.70
2019-03-23T12:34:44.205Z,64.00
2019-03-23T12:35:43.550Z,64.30
2019-03-23T12:36:43.540Z,68.20
2019-03-23T12:37:43.534Z,62.90
2019-03-23T12:38:43.491Z,64.10
2019-03-23T12:39:43.492Z,63.60
2019-03-23T12:40:43.494Z,65.10
2019-03-23T12:41:43.476Z,63.90
2019-03-23T12:42:43.461Z,63.50
2019-03-23T12:43:43.443Z,62.10
2019-03-23T12:44:43.433Z,65.10
2019-03-23T12:45:43.455Z,64.10
2019-03-23T12:46:48.287Z,62.60